AirNav   Phillips 66 Aviation Fuel
 
 533 users online  

1E8 Moores Airport
Degrasse, New York, USA

GOING TO DEGRASSE?


FAA INFORMATION EFFECTIVE 14 SEPTEMBER 2017

Location

FAA Identifier: 1E8
Lat/Long: 44-23-16.5000N / 075-03-58.8000W
44-23.275000N / 075-03.980000W
44.3879167 / -75.0663333
(estimated)
Elevation: 815 ft. / 248 m (estimated)
Variation: 14W (1985)
From city: 3 miles N of DEGRASSE, NY
Time zone: UTC -4 (UTC -5 during Standard Time)
Zip code: 13684

Airport Operations

Airport use: Open to the public
Activation date: 08/1966
Control tower: no
ARTCC: BOSTON CENTER
FSS: BURLINGTON FLIGHT SERVICE STATION
NOTAMs facility: BTV (NOTAM-D service available)
Attendance: UNATNDD
Wind indicator: yes
Segmented circle: no

Airport Communications

CTAF: 122.9
WX AWOS-3 at PTD (18 nm N): 118.325 (315-265-6106)

Nearby radio navigation aids

VOR radial/distance  VOR name  Freq  Var
MSSr219/34.8MASSENA VORTAC114.1014W
SLKr284/37.0SARANAC LAKE VOR/DME109.2014W

 
NDB name  Hdg/Dist  Freq  Var  ID
POTSDAM215/21.640014WPTD .--. - -..
DRUM070/34.625713WGTB --. - -...

Airport Services

Parking: tiedowns
Airframe service: NONE
Powerplant service: NONE
Bottled oxygen: NONE
Bulk oxygen: NONE

Runway Information

Runway 2/20

Dimensions: 2200 x 55 ft. / 671 x 17 m
RY 20 STARTS AT APPROX 250 FT FM TREES ON RY END.
Surface: turf, in fair condition
RUNWAY 2  RUNWAY 20
Latitude: 44-23.095392N44-23.456023N
Longitude: 075-04.003547W075-03.957098W
Elevation: 811.0 ft.815.0 ft.
Traffic pattern: leftleft
Runway heading: 019 magnetic, 005 true199 magnetic, 185 true
Obstructions: 40 ft. trees, 68 ft. from runway, 129 ft. left of centerline, 1:1 slope to clear60 ft. trees, 14 ft. from runway, 101 ft. left of centerline

Airport Ownership and Management from official FAA records

Ownership: Privately-owned
Owner: KATHRYN MOORE
2522 CO. RT. 27
RUSSELL, NY 13684
Phone 315-386-8907
Manager: CORY MOORE
4482 CO. RT 27
CANTON, NY 13617
Phone 315-276-5212
HOME PHONE 315-379-1907 OR 315-386-8907.

Airport Operational Statistics

Aircraft based on the field: 9
Single engine airplanes: 7
Ultralights: 2
    
Aircraft operations: avg 67/week *
100% local general aviation
* for 12-month period ending 24 June 2014

Additional Remarks

DEER ON AND INVOF ARPT.
RY 02 DITCH IMMEDIATELY RIGHT OF THLD MARKED BY CONES.
RY 20, 58 FT TREES, 263 FT FM RY BEGINNING, ACROSS RY WIDTH & APPROXIMATELY 800 FT. ALONG BOTH SIDES.
DIRT ROAD TO HANGAR CROSSES APPROXIMATE MIDPOINT OF RY.

Instrument Procedures

There are no published instrument procedures at 1E8.

Some nearby airports with instrument procedures:

KPTD - Potsdam Municipal Airport (Damon Field) (18 nm N)
KOGS - Ogdensburg International Airport (24 nm NW)
KMSS - Massena International Airport-Richards Field (34 nm N)
KGTB - Wheeler-Sack Army Airfield (34 nm SW)
KSLK - Adirondack Regional Airport (37 nm E)
 
Loc | Ops | Rwys | IFR | FBO | Links
Com | Nav | Svcs | Stats | Notes


 
Area around 1E8 (Moores Airport)
 
Road maps at: MapQuest Bing Google
 
Aerial photo
No photo
 
Sectional chart

 
Airport distance calculator
Flying to Moores Airport? Find the distance to fly.

From to 1E8

Sunrise and sunset
Times for 25-Sep-2017
 Local
(UTC-4)
 Zulu
(UTC)
Morning civil twilight06:2310:23
Sunrise06:5210:52
Sunset18:5222:52
Evening civil twilight19:2123:21

Current date and time
Zulu (UTC)  25-Sep-2017 11:03:20
Local (UTC-4)  25-Sep-2017 07:03:20
 
METAR
KOGS 
24nm NW 
251055Z AUTO 00000KT 1 1/2SM BR VV007 16/16 A3008 RMK AO2 T01620158
KMSS 
34nm N 
251055Z AUTO 00000KT 3/4SM BR VV002 16/16 A3009 RMK AO2 VIS 1/4V5 T01560156
KGTB 
35nm SW 
251056Z AUTO 00000KT 8SM CLR 18/17 A3010 RMK AO2 SLP190 T01790167 $
KSLK 
37nm E 
251051Z AUTO 00000KT 1/4SM FG VV001 11/11 A3015 RMK AO2 SLP208 T01060106 $
CXKE 
44nm NW 
251000Z AUTO 00000KT 17/17 RMK AO1 SLP181 T01730173 53004
TAF
KMSS 
34nm N 
250948Z 2510/2606 00000KT P6SM SCT002 TEMPO 2510/2512 1SM BR BKN002 FM251200 24005KT P6SM SKC
KGTB 
35nm SW 
250900Z 2509/2615 13006KT 6000 BR SKC QNH3008INS TEMPO 2509/2513 4800 BR BECMG 2513/2514 VRB06KT 9999 NSW FEW045 QNH3002INS BECMG 2607/2608 17006KT 4800 BR FEW030 SCT200 QNH3003INS BECMG 2612/2613 18006KT 9999 NSW FEW045 SCT200 QNH3002INS TX29/2521Z TN18/2511Z
KSLK 
37nm E 
250539Z 2506/2606 00000KT 6SM BR OVC003 TEMPO 2506/2508 1/4SM FG VV001 FM250800 00000KT 1/4SM FG VV001 TEMPO 2511/2513 2SM BR SCT001 FM251300 23005KT P6SM SKC
NOTAMs
Click for the latest NOTAMs
NOTAMs are issued by the DoD/FAA and will open in a separate window not controlled by AirNav.

 

 
 

Would you like to see your business listed on this page?

 If your business provides an interesting product or service to pilots, flight crews, aircraft, or users of the Moores Airport, you should consider listing it here.  To start the listing process, click on the button below
 
Add a business
 

Other Pages about Moores Airport

Update a link
 
Copyright © AirNav, LLC. All rights reserved. Privacy Policy  Contact